METAR Data
IDs: Format: Raw Decoded Include TAF

Data at: 1515 UTC 04 Aug 2021

LIML 041450Z 13007KT 9000 FEW030 BKN060 23/19 Q1010 NOSIG